Time;durP1;ratioP1;P1;durP2;ratioP2;P2;SDS_P1;SDS_P2;PMS_P1;PMS_P2;Temp;Humidity;BMP_temperature;BMP_pressure;BME280_temperature;BME280_humidity;BME280_pressure;Samples;Min_cycle;Max_cycle;Signal;HPM_P1;HPM_P2
2023/02/13 00:12:38;;;;;;;17.70;9.43;;;;;;;4.72;75.81;102217.44;30871976;28;96901;-69
2023/02/13 00:27:38;;;;;;;18.25;8.00;;;;;;;4.69;76.10;102209.69;30870089;28;96671;-71
2023/02/13 00:42:38;;;;;;;12.15;6.72;;;;;;;4.80;75.86;102198.56;30869611;28;97241;-70
2023/02/13 00:57:39;;;;;;;13.10;6.47;;;;;;;4.99;76.04;102211.59;30868377;28;97426;-69
2023/02/13 01:12:39;;;;;;;17.15;6.53;;;;;;;5.12;76.01;102203.00;30865703;28;96711;-69
2023/02/13 01:27:39;;;;;;;11.52;6.90;;;;;;;5.18;75.30;102203.53;30864419;28;96627;-71
2023/02/13 01:42:40;;;;;;;10.82;5.47;;;;;;;5.17;75.03;102191.25;30863338;28;97448;-71
2023/02/13 01:57:44;;;;;;;11.70;5.78;;;;;;;5.12;75.13;102184.50;30861549;28;97345;-71
2023/02/13 02:12:50;;;;;;;13.32;6.65;;;;;;;4.93;74.82;102163.56;30860044;28;96658;-71
2023/02/13 02:28:23;;;;;;;13.40;4.95;;;;;;;4.89;74.92;102169.00;30858341;28;96704;-71
2023/02/13 02:43:59;;;;;;;12.57;5.78;;;;;;;4.79;75.15;102173.06;30857242;28;97492;-71
2023/02/13 03:14:27;;;;;;;15.02;5.70;;;;;;;4.76;75.68;102175.88;30854816;28;96743;-70
2023/02/13 04:00:28;;;;;;;9.80;5.38;;;;;;;4.68;75.88;102175.47;30867232;28;97033;-71
2023/02/13 04:15:56;;;;;;;12.50;6.22;;;;;;;4.66;76.28;102175.53;30870352;28;96724;-68
2023/02/13 04:30:56;;;;;;;10.82;5.75;;;;;;;4.54;76.67;102163.84;30799081;28;98013;-69
2023/02/13 04:45:57;;;;;;;14.07;7.07;;;;;;;4.60;77.19;102167.94;30742439;28;97326;-70
2023/02/13 05:00:57;;;;;;;13.65;7.45;;;;;;;4.52;77.16;102157.78;30743537;28;96709;-67
2023/02/13 05:15:58;;;;;;;15.88;9.32;;;;;;;4.35;77.56;102137.59;30741540;28;97383;-68
2023/02/13 05:30:58;;;;;;;12.18;5.93;;;;;;;4.36;78.60;102144.56;30740856;28;96866;-68
2023/02/13 05:46:06;;;;;;;14.57;5.35;;;;;;;4.48;78.83;102148.31;30739109;28;96686;-68
2023/02/13 06:01:06;;;;;;;15.85;7.00;;;;;;;4.43;79.04;102154.78;30735839;28;97098;-67
2023/02/13 06:16:08;;;;;;;11.75;6.30;;;;;;;4.61;79.41;102160.84;30734555;28;97292;-68
2023/02/13 06:31:09;;;;;;;11.75;5.60;;;;;;;4.70;79.71;102178.84;30769406;28;97295;-67
2023/02/13 06:46:09;;;;;;;13.07;6.50;;;;;;;4.72;79.83;102175.19;30850986;28;97667;-68
2023/02/13 07:01:09;;;;;;;13.38;5.40;;;;;;;4.85;79.92;102182.44;30812975;28;96767;-68
2023/02/13 07:16:10;;;;;;;12.00;5.53;;;;;;;4.93;80.11;102174.94;30807876;28;96689;-68
2023/02/13 07:31:11;;;;;;;12.65;6.85;;;;;;;5.00;80.36;102172.81;30802260;28;97141;-67
2023/02/13 07:46:11;;;;;;;12.73;5.72;;;;;;;5.16;80.20;102175.47;30847281;28;97293;-70
2023/02/13 08:01:14;;;;;;;20.75;8.30;;;;;;;5.27;80.37;102178.34;30845456;28;97105;-64
2023/02/13 08:16:15;;;;;;;17.73;7.47;;;;;;;5.40;80.18;102184.66;30817504;28;97996;-66
2023/02/13 08:31:16;;;;;;;20.90;8.60;;;;;;;5.65;80.32;102172.66;30782385;28;96902;-64
2023/02/13 08:46:18;;;;;;;24.02;9.73;;;;;;;5.98;80.66;102181.38;30816968;28;96985;-65
2023/02/13 09:01:18;;;;;;;21.73;9.38;;;;;;;6.15;80.24;102181.22;30821347;28;97255;-70
2023/02/13 09:16:19;;;;;;;20.98;9.15;;;;;;;6.32;80.92;102188.13;30800841;28;96786;-66
2023/02/13 09:31:20;;;;;;;17.08;7.05;;;;;;;6.35;80.69;102213.56;30743761;28;96666;-67
2023/02/13 09:46:34;;;;;;;5.80;2.67;;;;;;;6.81;79.86;102233.72;30807330;28;97601;-67
2023/02/13 10:01:38;;;;;;;;;;;;;;;7.26;79.30;102226.47;30793559;28;97942;-66
2023/02/13 10:16:48;;;;;;;6.53;1.87;;;;;;;7.95;77.62;102226.38;30845573;28;100181;-70
2023/02/13 10:31:53;;;;;;;5.50;2.40;;;;;;;9.11;75.22;102229.03;30740788;28;96736;-65
2023/02/13 10:47:18;;;;;;;3.17;1.80;;;;;;;9.70;73.58;102214.97;30756928;28;97249;-65
2023/02/13 11:02:25;;;;;;;3.37;1.97;;;;;;;9.36;72.21;102195.34;30792796;28;96716;-66
2023/02/13 11:17:30;;;;;;;3.63;2.13;;;;;;;8.63;70.90;102192.56;30775764;28;97243;-66
2023/02/13 11:32:33;;;;;;;4.97;2.60;;;;;;;8.32;71.20;102172.59;30728976;28;96695;-67
2023/02/13 11:47:41;;;;;;;4.43;2.77;;;;;;;8.07;70.47;102172.47;30837103;28;97319;-67
2023/02/13 12:02:48;;;;;;;4.90;2.33;;;;;;;7.74;70.37;102184.41;30795607;28;98654;-67
2023/02/13 12:18:02;;;;;;;4.97;2.30;;;;;;;7.61;69.65;102180.88;30746312;28;96599;-63
2023/02/13 12:33:21;;;;;;;;;;;;;;;7.49;69.31;102163.13;30810468;28;96672;-65
2023/02/13 12:48:35;;;;;;;7.63;2.67;;;;;;;7.28;69.00;102147.69;30865151;28;97040;-64
2023/02/13 13:03:56;;;;;;;7.32;3.67;;;;;;;7.26;68.49;102146.94;30795814;28;96679;-64
2023/02/13 13:19:03;;;;;;;8.43;3.40;;;;;;;7.27;67.59;102138.03;30766092;28;96752;-65
2023/02/13 13:34:12;;;;;;;5.37;2.00;;;;;;;7.29;66.76;102155.53;30783265;28;96875;-63
2023/02/13 13:49:36;;;;;;;8.75;2.30;;;;;;;7.21;65.46;102146.41;30785739;28;97555;-64
2023/02/13 14:04:40;;;;;;;4.50;2.60;;;;;;;7.07;65.69;102131.41;30790719;28;97295;-64
2023/02/13 14:19:46;;;;;;;8.05;3.30;;;;;;;6.96;64.81;102134.75;30758937;28;97344;-65
2023/02/13 14:34:57;;;;;;;6.03;3.50;;;;;;;6.81;64.90;102114.50;30734050;28;98011;-64
2023/02/13 14:50:01;;;;;;;5.30;3.03;;;;;;;6.74;65.49;102080.47;30731022;28;96725;-66
2023/02/13 15:05:13;;;;;;;7.53;3.50;;;;;;;6.62;65.28;102078.63;30730790;28;96588;-66
2023/02/13 15:20:26;;;;;;;7.43;4.10;;;;;;;6.62;65.65;102070.69;30749835;28;96801;-68
2023/02/13 15:35:30;;;;;;;6.43;4.15;;;;;;;6.48;65.41;102076.84;30766983;28;97164;-67
2023/02/13 15:50:34;;;;;;;7.20;4.40;;;;;;;6.30;65.39;102068.28;30775975;28;96868;-64
2023/02/13 16:05:39;;;;;;;;;;;;;;;6.11;66.22;102068.56;30780004;28;96654;-64
2023/02/13 16:20:40;;;;;;;10.10;6.25;;;;;;;5.95;66.55;102065.97;30820199;28;97298;-66
2023/02/13 16:35:49;;;;;;;15.40;7.30;;;;;;;5.83;67.67;102056.16;30845308;28;96777;-69
2023/02/13 16:50:54;;;;;;;17.83;8.95;;;;;;;5.86;68.14;102067.38;30856365;28;97131;-69
2023/02/13 17:06:00;;;;;;;19.17;9.80;;;;;;;5.68;69.42;102064.06;30850583;28;97567;-66
2023/02/13 17:21:02;;;;;;;15.63;9.32;;;;;;;5.50;70.12;102051.97;30814477;28;98019;-67
2023/02/13 17:36:03;;;;;;;19.42;9.55;;;;;;;5.45;71.34;102033.72;30763867;28;96719;-68
2023/02/13 17:51:03;;;;;;;18.27;9.33;;;;;;;5.39;72.00;102050.78;30736329;28;96725;-67
2023/02/13 18:06:04;;;;;;;16.10;8.63;;;;;;;5.36;72.12;102056.25;30741793;28;96694;-67
2023/02/13 18:21:04;;;;;;;12.73;7.45;;;;;;;5.34;72.51;102026.41;30809843;28;97199;-66
2023/02/13 18:36:05;;;;;;;12.95;7.85;;;;;;;5.42;72.50;102047.94;30777889;28;97805;-66
2023/02/13 18:51:06;;;;;;;10.32;6.63;;;;;;;5.51;72.98;102037.78;30749384;28;97253;-70
2023/02/13 19:06:09;;;;;;;14.55;8.15;;;;;;;5.60;72.95;102045.16;30721212;28;97213;-66
2023/02/13 19:21:10;;;;;;;13.97;8.13;;;;;;;5.63;72.59;102067.91;30729421;28;97510;-75
2023/02/13 19:36:15;;;;;;;14.77;6.68;;;;;;;5.66;73.17;102068.59;30827362;28;97472;-75
2023/02/13 19:51:19;;;;;;;11.32;6.72;;;;;;;5.71;72.96;102074.47;30833526;28;96854;-62
2023/02/13 20:06:26;;;;;;;10.40;5.87;;;;;;;5.81;72.77;102098.56;30805769;28;97212;-66
2023/02/13 20:21:27;;;;;;;11.63;6.68;;;;;;;5.80;72.73;102099.50;30823376;28;97677;-67
2023/02/13 20:36:30;;;;;;;11.65;6.72;;;;;;;5.76;72.32;102122.63;30782618;28;97235;-64
2023/02/13 20:51:30;;;;;;;13.85;7.78;;;;;;;5.78;71.72;102133.13;30744656;28;96625;-69
2023/02/13 21:06:35;;;;;;;16.85;8.85;;;;;;;5.78;71.51;102166.66;30743972;28;97233;-76
2023/02/13 21:21:37;;;;;;;19.55;9.43;;;;;;;5.80;71.21;102162.13;30741333;28;96668;-77
2023/02/13 21:36:37;;;;;;;16.08;8.43;;;;;;;5.74;71.61;102168.63;30742450;28;96592;-75
2023/02/13 21:51:38;;;;;;;20.15;9.50;;;;;;;5.69;71.23;102173.34;30739594;28;96888;-74
2023/02/13 22:06:39;;;;;;;17.95;8.75;;;;;;;5.63;71.54;102179.84;30740171;28;97620;-75
2023/02/13 22:21:39;;;;;;;18.33;9.90;;;;;;;5.61;71.14;102180.88;30737987;28;97195;-74
2023/02/13 22:36:41;;;;;;;19.40;9.55;;;;;;;5.54;70.98;102185.66;30735960;28;97591;-75
2023/02/13 22:51:41;;;;;;;19.35;9.60;;;;;;;5.46;70.15;102172.88;30734459;28;97519;-72
2023/02/13 23:06:42;;;;;;;16.20;7.88;;;;;;;5.33;69.91;102170.09;30735880;28;97990;-74
2023/02/13 23:21:42;;;;;;;15.55;8.48;;;;;;;5.24;69.71;102178.53;30733105;28;96724;-74
2023/02/13 23:36:43;;;;;;;14.75;8.27;;;;;;;5.17;69.81;102174.53;30733332;28;96686;-74
2023/02/13 23:51:43;;;;;;;16.15;7.93;;;;;;;5.11;69.77;102166.94;30746304;28;97311;-71
